Time,TemperatureF,DewpointF,PressureIn,WindDirection,WindDirectionDegrees,WindSpeedMPH,WindSpeedGustMPH,Humidity,HourlyPrecipIn,Conditions,Clouds,dailyrainin,SolarRadiationWatts/m^2,SoftwareType,DateUTC
2013-09-02 00:01:00,78.6,74.8,29.91,SSE,159,0.0,1.0,88,0.00,,,0.00,0.0,meteohub,2013-09-02 04:01:00,
2013-09-02 00:02:00,78.6,74.8,29.91,SSE,159,0.0,1.0,88,0.00,,,0.00,0.0,meteohub,2013-09-02 04:02:00,
2013-09-02 00:08:00,78.4,74.8,29.91,SSE,162,0.0,1.0,89,0.00,,,0.00,0.0,meteohub,2013-09-02 04:08:00,
2013-09-02 00:13:00,78.4,74.8,29.91,SSE,158,2.0,2.0,89,0.00,,,0.00,0.0,meteohub,2013-09-02 04:13:00,
2013-09-02 00:18:00,78.4,74.8,29.90,SSW,198,0.0,4.0,89,0.00,,,0.00,0.0,meteohub,2013-09-02 04:18:00,
2013-09-02 00:23:00,78.3,74.7,29.90,SSE,157,2.0,4.0,89,0.00,,,0.00,0.0,meteohub,2013-09-02 04:23:00,
2013-09-02 00:28:00,78.3,75.0,29.90,SSE,150,1.0,4.0,90,0.00,,,0.00,0.0,meteohub,2013-09-02 04:28:00,
2013-09-02 00:33:00,78.3,75.0,29.90,South,171,0.0,4.0,90,0.00,,,0.00,0.0,meteohub,2013-09-02 04:33:00,
2013-09-02 00:38:00,78.3,75.0,29.90,South,185,0.0,4.0,90,0.00,,,0.00,0.0,meteohub,2013-09-02 04:38:00,
2013-09-02 00:43:00,78.1,74.8,29.90,South,185,0.0,3.0,90,0.00,,,0.00,0.0,meteohub,2013-09-02 04:43:00,
2013-09-02 00:48:00,78.1,74.8,29.90,West,269,5.0,5.0,90,0.00,,,0.00,0.0,meteohub,2013-09-02 04:48:00,
2013-09-02 00:53:00,78.1,75.2,29.90,South,175,0.0,5.0,91,0.00,,,0.00,0.0,meteohub,2013-09-02 04:53:00,
2013-09-02 00:58:00,77.9,75.0,29.90,South,175,0.0,5.0,91,0.00,,,0.00,0.0,meteohub,2013-09-02 04:58:00,
2013-09-02 01:03:00,77.9,75.0,29.90,South,175,0.0,5.0,91,0.00,,,0.00,0.0,meteohub,2013-09-02 05:03:00,
2013-09-02 01:08:00,77.7,74.8,29.90,South,175,0.0,3.0,91,0.00,,,0.00,0.0,meteohub,2013-09-02 05:08:00,
2013-09-02 01:13:00,77.7,74.8,29.90,South,175,0.0,1.0,91,0.00,,,0.00,0.0,meteohub,2013-09-02 05:13:00,
2013-09-02 01:18:00,77.5,74.7,29.89,South,175,0.0,1.0,91,0.00,,,0.00,0.0,meteohub,2013-09-02 05:18:00,
2013-09-02 01:23:00,77.5,74.7,29.89,South,175,0.0,1.0,91,0.00,,,0.00,0.0,meteohub,2013-09-02 05:23:00,
2013-09-02 01:28:00,77.5,74.7,29.89,South,175,0.0,2.0,91,0.00,,,0.00,0.0,meteohub,2013-09-02 05:28:00,
2013-09-02 01:33:00,77.4,74.5,29.89,South,175,0.0,2.0,91,0.00,,,0.00,0.0,meteohub,2013-09-02 05:33:00,
2013-09-02 01:38:00,77.4,74.5,29.89,WSW,242,0.0,2.0,91,0.00,,,0.00,0.0,meteohub,2013-09-02 05:38:00,
2013-09-02 01:43:00,77.4,74.5,29.89,WSW,242,0.0,2.0,91,0.00,,,0.00,0.0,meteohub,2013-09-02 05:43:00,
2013-09-02 01:48:00,77.2,74.3,29.89,WSW,242,0.0,2.0,91,0.00,,,0.00,0.0,meteohub,2013-09-02 05:48:00,
2013-09-02 01:53:00,77.2,74.3,29.89,WSW,242,0.0,0.0,91,0.00,,,0.00,0.0,meteohub,2013-09-02 05:53:00,
2013-09-02 01:58:00,77.0,74.1,29.89,WSW,239,0.0,0.0,91,0.00,,,0.00,0.0,meteohub,2013-09-02 05:58:00,
2013-09-02 02:03:00,76.8,74.3,29.90,WSW,239,0.0,0.0,92,0.00,,,0.00,0.0,meteohub,2013-09-02 06:03:00,
2013-09-02 02:08:00,76.8,74.3,29.90,WSW,239,0.0,0.0,92,0.00,,,0.00,0.0,meteohub,2013-09-02 06:08:00,
2013-09-02 02:13:00,76.6,74.1,29.89,South,180,0.0,0.0,92,0.00,,,0.00,0.0,meteohub,2013-09-02 06:13:00,
2013-09-02 02:18:00,76.6,74.1,29.90,South,180,0.0,1.0,92,0.00,,,0.00,0.0,meteohub,2013-09-02 06:18:00,
2013-09-02 02:23:00,76.6,74.1,29.89,SW,219,0.0,4.0,92,0.00,,,0.00,0.0,meteohub,2013-09-02 06:23:00,
2013-09-02 02:28:00,76.6,74.1,29.89,South,191,0.0,4.0,92,0.00,,,0.00,0.0,meteohub,2013-09-02 06:28:00,
2013-09-02 02:33:00,76.5,73.9,29.89,SSW,194,0.0,4.0,92,0.00,,,0.00,0.0,meteohub,2013-09-02 06:33:00,
2013-09-02 02:38:00,76.5,73.9,29.89,SSW,194,0.0,2.0,92,0.00,,,0.00,0.0,meteohub,2013-09-02 06:38:00,
2013-09-02 02:43:00,76.3,74.1,29.89,SSE,163,0.0,1.0,93,0.00,,,0.00,0.0,meteohub,2013-09-02 06:43:00,
2013-09-02 02:48:00,76.3,74.1,29.89,SSE,163,0.0,1.0,93,0.00,,,0.00,0.0,meteohub,2013-09-02 06:48:00,
2013-09-02 02:53:00,76.3,74.1,29.89,SSE,163,0.0,1.0,93,0.00,,,0.00,0.0,meteohub,2013-09-02 06:53:00,
2013-09-02 02:58:00,76.1,73.9,29.89,SSE,163,0.0,1.0,93,0.00,,,0.00,0.0,meteohub,2013-09-02 06:58:00,
2013-09-02 03:03:00,75.9,73.8,29.89,SSE,163,0.0,1.0,93,0.00,,,0.00,0.0,meteohub,2013-09-02 07:03:00,
2013-09-02 03:08:00,75.9,73.8,29.89,SSE,163,0.0,1.0,93,0.00,,,0.00,0.0,meteohub,2013-09-02 07:08:00,
2013-09-02 03:13:00,75.9,74.1,29.90,SE,142,1.0,1.0,94,0.00,,,0.00,0.0,meteohub,2013-09-02 07:13:00,
2013-09-02 03:18:00,75.9,74.1,29.90,SE,142,0.0,3.0,94,0.00,,,0.00,0.0,meteohub,2013-09-02 07:18:00,
2013-09-02 03:23:00,75.8,74.0,29.90,SE,142,0.0,-999.0,94,-99.99,,,0.00,0,weatherlink.com 1.10,2013-09-02 07:23:00,
2013-09-02 03:28:00,75.7,73.9,29.89,SE,142,0.0,3.0,94,0.00,,,0.00,0.0,meteohub,2013-09-02 07:28:00,
2013-09-02 03:33:00,75.7,73.9,29.89,SE,142,0.0,1.0,94,0.00,,,0.00,0.0,meteohub,2013-09-02 07:33:00,
2013-09-02 03:38:00,75.7,73.9,29.89,SE,142,0.0,1.0,94,0.00,,,0.00,0.0,meteohub,2013-09-02 07:38:00,
2013-09-02 03:43:00,75.7,73.9,29.89,SE,142,0.0,0.0,94,0.00,,,0.00,0.0,meteohub,2013-09-02 07:43:00,
2013-09-02 03:48:00,75.7,73.9,29.89,SE,142,0.0,0.0,94,0.00,,,0.00,0.0,meteohub,2013-09-02 07:48:00,
2013-09-02 03:53:00,75.7,73.9,29.89,SE,142,0.0,0.0,94,0.00,,,0.00,0.0,meteohub,2013-09-02 07:53:00,
2013-09-02 03:59:00,75.7,73.9,29.89,SE,142,0.0,1.0,94,0.00,,,0.00,0.0,meteohub,2013-09-02 07:59:00,
2013-09-02 04:04:00,75.7,73.9,29.89,SE,142,0.0,2.0,94,0.00,,,0.00,0.0,meteohub,2013-09-02 08:04:00,
2013-09-02 04:09:00,75.7,73.9,29.89,SSW,205,0.0,2.0,94,0.00,,,0.00,0.0,meteohub,2013-09-02 08:09:00,
2013-09-02 04:14:00,75.7,73.9,29.89,SSW,199,0.0,2.0,94,0.00,,,0.00,0.0,meteohub,2013-09-02 08:14:00,
2013-09-02 04:19:00,75.6,73.9,29.89,SSW,198,0.0,1.0,95,0.00,,,0.00,0.0,meteohub,2013-09-02 08:19:00,
2013-09-02 04:24:00,75.7,74.1,29.88,SSW,196,0.0,1.0,95,0.00,,,0.00,0.0,meteohub,2013-09-02 08:24:00,
2013-09-02 04:29:00,75.7,74.1,29.89,South,182,0.0,1.0,95,0.00,,,0.00,0.0,meteohub,2013-09-02 08:29:00,
2013-09-02 04:34:00,75.6,73.8,29.89,South,182,0.0,2.0,94,0.00,,,0.00,0.0,meteohub,2013-09-02 08:34:00,
2013-09-02 04:39:00,75.6,73.8,29.89,South,182,0.0,2.0,94,0.00,,,0.00,0.0,meteohub,2013-09-02 08:39:00,
2013-09-02 04:44:00,75.6,73.8,29.89,South,182,0.0,2.0,94,0.00,,,0.00,0.0,meteohub,2013-09-02 08:44:00,
2013-09-02 04:49:00,75.6,73.8,29.88,South,182,0.0,1.0,94,0.00,,,0.00,0.0,meteohub,2013-09-02 08:49:00,
2013-09-02 04:54:00,75.6,73.8,29.88,South,182,0.0,1.0,94,0.00,,,0.00,0.0,meteohub,2013-09-02 08:54:00,
2013-09-02 04:59:00,75.6,73.9,29.88,South,182,0.0,1.0,95,0.00,,,0.00,0.0,meteohub,2013-09-02 08:59:00,
2013-09-02 05:04:00,75.6,73.9,29.88,South,182,0.0,0.0,95,0.00,,,0.00,0.0,meteohub,2013-09-02 09:04:00,
2013-09-02 05:09:00,75.4,73.6,29.88,South,182,0.0,0.0,94,0.00,,,0.00,0.0,meteohub,2013-09-02 09:09:00,
2013-09-02 05:14:00,75.2,73.6,29.88,South,182,0.0,1.0,95,0.00,,,0.00,0.0,meteohub,2013-09-02 09:14:00,
2013-09-02 05:19:00,75.0,73.4,29.88,South,182,0.0,1.0,95,0.00,,,0.00,0.0,meteohub,2013-09-02 09:19:00,
2013-09-02 05:24:00,75.0,73.4,29.88,South,182,0.0,1.0,95,0.00,,,0.00,0.0,meteohub,2013-09-02 09:24:00,
2013-09-02 05:29:00,75.0,73.4,29.88,South,182,0.0,0.0,95,0.00,,,0.00,0.0,meteohub,2013-09-02 09:29:00,
2013-09-02 05:34:00,75.0,73.4,29.89,South,182,0.0,0.0,95,0.00,,,0.00,0.0,meteohub,2013-09-02 09:34:00,
2013-09-02 05:39:00,74.8,73.2,29.88,South,182,0.0,1.0,95,0.00,,,0.00,0.0,meteohub,2013-09-02 09:39:00,
2013-09-02 05:44:00,74.8,73.2,29.88,South,182,0.0,1.0,95,0.00,,,0.00,0.0,meteohub,2013-09-02 09:44:00,
2013-09-02 05:49:00,74.8,73.2,29.88,South,182,0.0,1.0,95,0.00,,,0.00,0.0,meteohub,2013-09-02 09:49:00,
2013-09-02 05:54:00,74.8,73.2,29.88,South,182,0.0,0.0,95,0.00,,,0.00,0.0,meteohub,2013-09-02 09:54:00,
2013-09-02 05:59:00,74.8,73.2,29.89,South,182,0.0,0.0,95,0.00,,,0.00,0.0,meteohub,2013-09-02 09:59:00,
2013-09-02 06:04:00,74.8,73.2,29.89,South,182,0.0,1.0,95,0.00,,,0.00,0.0,meteohub,2013-09-02 10:04:00,
2013-09-02 06:09:00,74.8,73.2,29.89,South,182,0.0,1.0,95,0.00,,,0.00,0.0,meteohub,2013-09-02 10:09:00,
2013-09-02 06:14:00,74.7,73.2,29.89,South,182,0.0,1.0,95,0.00,,,0.00,0.0,meteohub,2013-09-02 10:14:00,
2013-09-02 06:19:00,74.7,73.2,29.89,South,182,0.0,1.0,95,0.00,,,0.00,0.0,meteohub,2013-09-02 10:19:00,
2013-09-02 06:24:00,74.8,73.2,29.89,South,182,0.0,1.0,95,0.00,,,0.00,0.0,meteohub,2013-09-02 10:24:00,
2013-09-02 06:29:00,74.8,73.2,29.89,South,182,0.0,1.0,95,0.00,,,0.00,0.0,meteohub,2013-09-02 10:29:00,
2013-09-02 06:34:00,74.8,73.2,29.89,South,175,0.0,1.0,95,0.00,,,0.00,0.0,meteohub,2013-09-02 10:34:00,
2013-09-02 06:39:00,74.7,73.2,29.90,South,175,0.0,2.0,95,0.00,,,0.00,0.0,meteohub,2013-09-02 10:39:00,
2013-09-02 06:44:00,74.8,73.2,29.90,South,173,0.0,2.0,95,0.00,,,0.00,0.0,meteohub,2013-09-02 10:44:00,
2013-09-02 06:49:00,74.8,73.2,29.90,SSE,164,0.0,2.0,95,0.00,,,0.00,0.0,meteohub,2013-09-02 10:49:00,
2013-09-02 06:54:00,74.8,73.2,29.90,SSE,164,0.0,3.0,95,0.00,,,0.00,0.0,meteohub,2013-09-02 10:54:00,
2013-09-02 06:59:00,74.8,73.2,29.90,SSE,164,0.0,3.0,95,0.00,,,0.00,0.0,meteohub,2013-09-02 10:59:00,
2013-09-02 07:04:00,75.0,73.4,29.90,SSE,165,0.0,3.0,95,0.00,,,0.00,0.0,meteohub,2013-09-02 11:04:00,
2013-09-02 07:09:00,74.8,73.2,29.90,SSE,165,0.0,1.0,95,0.00,,,0.00,7.0,meteohub,2013-09-02 11:09:00,
2013-09-02 07:15:00,74.8,73.2,29.90,SSE,165,0.0,1.0,95,0.00,,,0.00,11.0,meteohub,2013-09-02 11:15:00,
2013-09-02 07:20:00,74.8,73.2,29.91,SSE,164,0.0,2.0,95,0.00,,,0.00,16.0,meteohub,2013-09-02 11:20:00,
2013-09-02 07:25:00,74.8,73.2,29.90,SSE,165,1.0,2.0,95,0.00,,,0.00,19.0,meteohub,2013-09-02 11:25:00,
2013-09-02 07:30:00,75.0,73.4,29.90,WSW,250,0.0,3.0,95,0.00,,,0.00,30.0,meteohub,2013-09-02 11:30:00,
2013-09-02 07:35:00,75.2,73.4,29.91,SW,217,0.0,3.0,94,0.00,,,0.00,62.0,meteohub,2013-09-02 11:35:00,
2013-09-02 07:40:00,75.6,73.8,29.91,SW,214,0.0,3.0,94,0.00,,,0.00,76.0,meteohub,2013-09-02 11:40:00,
2013-09-02 07:45:00,75.7,73.9,29.91,SW,214,0.0,2.0,94,0.00,,,0.00,58.0,meteohub,2013-09-02 11:45:00,
2013-09-02 07:50:00,76.3,74.1,29.91,SW,214,0.0,2.0,93,0.00,,,0.00,105.0,meteohub,2013-09-02 11:50:00,
2013-09-02 07:55:00,76.6,74.5,29.91,SW,214,0.0,1.0,93,0.00,,,0.00,125.0,meteohub,2013-09-02 11:55:00,
2013-09-02 08:00:00,77.0,74.5,29.91,SW,214,0.0,1.0,92,0.00,,,0.00,141.0,meteohub,2013-09-02 12:00:00,
2013-09-02 08:05:00,77.4,74.5,29.91,South,171,0.0,1.0,91,0.00,,,0.00,156.0,meteohub,2013-09-02 12:05:00,
2013-09-02 08:11:00,77.7,74.8,29.91,South,171,0.0,2.0,91,0.00,,,0.00,178.0,meteohub,2013-09-02 12:11:00,
2013-09-02 08:16:00,78.3,75.0,29.91,SSE,158,0.0,2.0,90,0.00,,,0.00,190.0,meteohub,2013-09-02 12:16:00,
2013-09-02 08:21:00,78.6,75.0,29.91,SE,133,0.0,3.0,89,0.00,,,0.00,207.0,meteohub,2013-09-02 12:21:00,
2013-09-02 08:26:00,78.8,75.2,29.91,SW,214,0.0,3.0,89,0.00,,,0.00,227.0,meteohub,2013-09-02 12:26:00,
2013-09-02 08:31:00,79.2,75.4,29.91,WNW,287,1.0,3.0,88,0.00,,,0.00,243.0,meteohub,2013-09-02 12:31:00,
2013-09-02 08:36:00,79.3,75.6,29.91,South,184,0.0,3.0,88,0.00,,,0.00,260.0,meteohub,2013-09-02 12:36:00,
2013-09-02 08:41:00,79.9,75.9,29.92,South,183,0.0,3.0,88,0.00,,,0.00,279.0,meteohub,2013-09-02 12:41:00,
2013-09-02 08:46:00,80.2,76.1,29.92,SSE,168,0.0,3.0,87,0.00,,,0.00,297.0,meteohub,2013-09-02 12:46:00,
2013-09-02 08:51:00,80.4,75.9,29.92,NW,311,0.0,2.0,86,0.00,,,0.00,315.0,meteohub,2013-09-02 12:51:00,
2013-09-02 08:56:00,80.8,76.5,29.92,NW,322,0.0,5.0,87,0.00,,,0.00,334.0,meteohub,2013-09-02 12:56:00,
2013-09-02 09:01:00,81.0,76.5,29.92,SSW,200,0.0,5.0,86,0.00,,,0.00,355.0,meteohub,2013-09-02 13:01:00,
2013-09-02 09:06:00,81.3,76.5,29.92,WNW,298,2.0,5.0,85,0.00,,,0.00,366.0,meteohub,2013-09-02 13:06:00,
2013-09-02 09:11:00,81.3,76.6,29.93,West,264,0.0,6.0,86,0.00,,,0.00,385.0,meteohub,2013-09-02 13:11:00,
2013-09-02 09:16:00,81.9,77.2,29.93,West,279,0.0,6.0,86,0.00,,,0.00,404.0,meteohub,2013-09-02 13:16:00,
2013-09-02 09:21:00,82.0,77.4,29.93,SE,141,0.0,6.0,86,0.00,,,0.00,420.0,meteohub,2013-09-02 13:21:00,
2013-09-02 09:26:00,82.6,77.5,29.93,SSE,165,0.0,6.0,85,0.00,,,0.00,439.0,meteohub,2013-09-02 13:26:00,
2013-09-02 09:31:00,82.6,77.5,29.94,WNW,300,0.0,6.0,85,0.00,,,0.00,454.0,meteohub,2013-09-02 13:31:00,
2013-09-02 09:37:00,82.9,77.5,29.94,East,99,0.0,6.0,84,0.00,,,0.00,476.0,meteohub,2013-09-02 13:37:00,
2013-09-02 09:41:00,83.3,77.5,29.94,South,186,1.0,6.0,83,0.00,,,0.00,494.0,meteohub,2013-09-02 13:41:00,
2013-09-02 09:47:00,83.5,77.7,29.94,West,263,1.0,4.0,83,0.00,,,0.00,513.0,meteohub,2013-09-02 13:47:00,
2013-09-02 09:52:00,83.8,77.7,29.94,SW,217,1.0,7.0,82,0.00,,,0.00,522.0,meteohub,2013-09-02 13:52:00,
2013-09-02 09:57:00,84.0,77.9,29.94,South,175,1.0,7.0,82,0.00,,,0.00,543.0,meteohub,2013-09-02 13:57:00,
2013-09-02 10:02:00,84.0,77.5,29.94,WNW,291,0.0,5.0,81,0.00,,,0.00,587.0,meteohub,2013-09-02 14:02:00,
2013-09-02 10:07:00,84.4,77.9,29.94,SSE,162,6.0,6.0,81,0.00,,,0.00,575.0,meteohub,2013-09-02 14:07:00,
2013-09-02 10:12:00,84.4,77.5,29.94,SSE,156,1.0,7.0,80,0.00,,,0.00,598.0,meteohub,2013-09-02 14:12:00,
2013-09-02 10:17:00,84.4,77.9,29.94,WNW,287,1.0,7.0,81,0.00,,,0.00,601.0,meteohub,2013-09-02 14:17:00,
2013-09-02 10:22:00,84.7,77.9,29.94,NNW,346,0.0,7.0,80,0.00,,,0.00,619.0,meteohub,2013-09-02 14:22:00,
2013-09-02 10:27:00,85.5,78.6,29.94,SE,138,0.0,7.0,80,0.00,,,0.00,649.0,meteohub,2013-09-02 14:27:00,
2013-09-02 10:32:00,85.3,77.7,29.94,SW,225,0.0,3.0,78,0.00,,,0.00,668.0,meteohub,2013-09-02 14:32:00,
2013-09-02 10:37:00,85.3,77.2,29.95,South,184,2.0,7.0,77,0.00,,,0.00,758.0,meteohub,2013-09-02 14:37:00,
2013-09-02 10:42:00,85.5,77.4,29.95,South,172,0.0,7.0,77,0.00,,,0.00,779.0,meteohub,2013-09-02 14:42:00,
2013-09-02 10:47:00,85.6,77.5,29.95,WNW,294,0.0,7.0,77,0.00,,,0.00,788.0,meteohub,2013-09-02 14:47:00,
2013-09-02 10:52:00,85.5,78.3,29.95,West,274,0.0,7.0,79,0.00,,,0.00,257.0,meteohub,2013-09-02 14:52:00,
2013-09-02 10:57:00,85.5,77.4,29.95,NNW,338,0.0,7.0,77,0.00,,,0.00,761.0,meteohub,2013-09-02 14:57:00,
2013-09-02 11:02:00,85.5,77.7,29.94,WNW,298,8.0,8.0,78,0.00,,,0.00,849.0,meteohub,2013-09-02 15:02:00,
2013-09-02 11:07:00,84.9,77.7,29.95,West,274,0.0,9.0,79,0.00,,,0.00,308.0,meteohub,2013-09-02 15:07:00,
2013-09-02 11:12:00,85.5,78.6,29.94,ESE,117,0.0,9.0,80,0.00,,,0.00,877.0,meteohub,2013-09-02 15:12:00,
2013-09-02 11:17:00,85.5,77.0,29.94,WNW,292,1.0,9.0,76,0.00,,,0.00,202.0,meteohub,2013-09-02 15:17:00,
2013-09-02 11:22:00,85.3,78.4,29.94,West,271,0.0,7.0,80,0.00,,,0.00,944.0,meteohub,2013-09-02 15:22:00,
2013-09-02 11:27:00,85.8,78.6,29.94,SSW,202,0.0,7.0,79,0.00,,,0.00,905.0,meteohub,2013-09-02 15:27:00,
2013-09-02 11:32:00,86.4,77.9,29.94,SSW,200,1.0,7.0,76,0.00,,,0.00,849.0,meteohub,2013-09-02 15:32:00,
2013-09-02 11:37:00,86.4,77.5,29.94,NNW,329,0.0,5.0,75,0.00,,,0.00,865.0,meteohub,2013-09-02 15:37:00,
2013-09-02 11:42:00,86.5,77.2,29.94,SSW,211,5.0,6.0,74,0.00,,,0.00,891.0,meteohub,2013-09-02 15:42:00,
2013-09-02 11:47:00,86.7,78.3,29.94,WNW,296,3.0,6.0,76,0.00,,,0.00,886.0,meteohub,2013-09-02 15:47:00,
2013-09-02 11:52:00,87.1,77.7,29.94,West,277,0.0,10.0,74,0.00,,,0.00,1048.0,meteohub,2013-09-02 15:52:00,
2013-09-02 11:57:00,87.3,78.8,29.94,NW,309,5.0,10.0,76,0.00,,,0.00,916.0,meteohub,2013-09-02 15:57:00,
2013-09-02 12:02:00,87.1,77.7,29.94,WNW,290,4.0,10.0,74,0.00,,,0.00,933.0,meteohub,2013-09-02 16:02:00,
2013-09-02 12:07:00,86.7,77.0,29.93,SW,223,5.0,8.0,73,0.00,,,0.00,983.0,meteohub,2013-09-02 16:07:00,
2013-09-02 12:12:00,87.1,77.7,29.93,South,184,0.0,8.0,74,0.00,,,0.00,918.0,meteohub,2013-09-02 16:12:00,
2013-09-02 12:17:00,87.6,79.2,29.93,South,186,1.0,8.0,76,0.00,,,0.00,1018.0,meteohub,2013-09-02 16:17:00,
2013-09-02 12:22:00,88.2,77.9,29.93,West,271,0.0,5.0,72,0.00,,,0.00,1072.0,meteohub,2013-09-02 16:22:00,
2013-09-02 12:27:00,88.0,78.3,29.93,WNW,296,0.0,7.0,73,0.00,,,0.00,229.0,meteohub,2013-09-02 16:27:00,
2013-09-02 12:32:00,87.6,77.5,29.93,WSW,241,0.0,7.0,72,0.00,,,0.00,278.0,meteohub,2013-09-02 16:32:00,
2013-09-02 12:37:00,87.8,78.4,29.93,WNW,287,2.0,7.0,74,0.00,,,0.00,276.0,meteohub,2013-09-02 16:37:00,
2013-09-02 12:42:00,87.4,77.4,29.93,WNW,300,1.0,6.0,72,0.00,,,0.00,234.0,meteohub,2013-09-02 16:42:00,
2013-09-02 12:47:00,87.1,77.4,29.93,WNW,286,0.0,6.0,73,0.00,,,0.00,192.0,meteohub,2013-09-02 16:47:00,
2013-09-02 12:52:00,86.7,77.4,29.92,WNW,286,0.0,5.0,74,0.00,,,0.00,185.0,meteohub,2013-09-02 16:52:00,
2013-09-02 12:57:00,87.3,78.4,29.92,WNW,288,4.0,5.0,75,0.00,,,0.00,933.0,meteohub,2013-09-02 16:57:00,
2013-09-02 13:02:00,88.0,78.3,29.92,WSW,258,0.0,9.0,73,0.00,,,0.00,974.0,meteohub,2013-09-02 17:02:00,
2013-09-02 13:07:00,88.3,78.1,29.92,South,172,0.0,9.0,72,0.00,,,0.00,965.0,meteohub,2013-09-02 17:07:00,
2013-09-02 13:12:00,88.9,77.9,29.91,West,263,1.0,9.0,70,0.00,,,0.00,954.0,meteohub,2013-09-02 17:12:00,
2013-09-02 13:17:00,89.1,77.5,29.91,WNW,283,3.0,7.0,69,0.00,,,0.00,983.0,meteohub,2013-09-02 17:17:00,
2013-09-02 13:22:00,89.1,77.2,29.91,WNW,291,3.0,8.0,68,0.00,,,0.00,1067.0,meteohub,2013-09-02 17:22:00,
2013-09-02 13:27:00,88.9,78.3,29.91,ESE,107,0.0,10.0,71,0.00,,,0.00,257.0,meteohub,2013-09-02 17:27:00,
2013-09-02 13:32:00,89.2,78.1,29.91,SSW,211,3.0,10.0,70,0.00,,,0.00,960.0,meteohub,2013-09-02 17:32:00,
2013-09-02 13:37:00,89.4,78.3,29.91,SW,224,2.0,5.0,70,0.00,,,0.00,1009.0,meteohub,2013-09-02 17:37:00,
2013-09-02 13:42:00,89.6,78.4,29.91,South,171,2.0,6.0,70,0.00,,,0.00,1021.0,meteohub,2013-09-02 17:42:00,
2013-09-02 13:47:00,90.1,79.9,29.90,West,279,2.0,6.0,72,0.00,,,0.00,974.0,meteohub,2013-09-02 17:47:00,
2013-09-02 13:52:00,90.5,78.1,29.90,WSW,257,0.0,6.0,67,0.00,,,0.00,988.0,meteohub,2013-09-02 17:52:00,
2013-09-02 13:57:00,90.9,78.8,29.90,SSE,152,0.0,6.0,68,0.00,,,0.00,1055.0,meteohub,2013-09-02 17:57:00,
2013-09-02 14:02:00,91.0,78.6,29.90,WNW,287,0.0,6.0,67,0.00,,,0.00,1027.0,meteohub,2013-09-02 18:02:00,
2013-09-02 14:07:00,90.7,77.4,29.89,WNW,298,1.0,6.0,65,0.00,,,0.00,918.0,meteohub,2013-09-02 18:07:00,
2013-09-02 14:12:00,90.1,77.2,29.89,WNW,288,1.0,6.0,66,0.00,,,0.00,297.0,meteohub,2013-09-02 18:12:00,
2013-09-02 14:17:00,89.4,77.9,29.89,West,275,1.0,6.0,69,0.00,,,0.00,308.0,meteohub,2013-09-02 18:17:00,
2013-09-02 14:22:00,89.2,77.7,29.89,WNW,284,7.0,8.0,69,0.00,,,0.00,958.0,meteohub,2013-09-02 18:22:00,
2013-09-02 14:27:00,89.2,77.4,29.89,WNW,288,7.0,8.0,68,0.00,,,0.00,925.0,meteohub,2013-09-02 18:27:00,
2013-09-02 14:32:00,89.2,77.4,29.88,NW,323,0.0,8.0,68,0.00,,,0.00,912.0,meteohub,2013-09-02 18:32:00,
2013-09-02 14:37:00,89.6,77.2,29.88,WNW,287,1.0,8.0,67,0.00,,,0.00,954.0,meteohub,2013-09-02 18:37:00,
2013-09-02 14:42:00,89.4,77.5,29.88,NW,309,6.0,8.0,68,0.00,,,0.00,912.0,meteohub,2013-09-02 18:42:00,
2013-09-02 14:47:00,89.2,76.8,29.87,WNW,292,0.0,9.0,67,0.00,,,0.00,928.0,meteohub,2013-09-02 18:47:00,
2013-09-02 14:52:00,89.6,77.2,29.87,South,174,1.0,9.0,67,0.00,,,0.00,926.0,meteohub,2013-09-02 18:52:00,
2013-09-02 14:57:00,90.5,77.2,29.87,WNW,298,0.0,9.0,65,0.00,,,0.00,199.0,meteohub,2013-09-02 18:57:00,
2013-09-02 15:02:00,90.5,77.5,29.86,West,271,0.0,4.0,66,0.00,,,0.00,232.0,meteohub,2013-09-02 19:02:00,
2013-09-02 15:07:00,89.8,77.4,29.86,WNW,296,3.0,6.0,67,0.00,,,0.00,192.0,meteohub,2013-09-02 19:07:00,
2013-09-02 15:12:00,89.1,76.6,29.86,NNW,348,1.0,6.0,67,0.00,,,0.00,877.0,meteohub,2013-09-02 19:12:00,
2013-09-02 15:17:00,89.4,77.5,29.86,West,259,0.0,4.0,68,0.00,,,0.00,879.0,meteohub,2013-09-02 19:17:00,
2013-09-02 15:22:00,90.0,77.5,29.86,West,259,2.0,4.0,67,0.00,,,0.00,253.0,meteohub,2013-09-02 19:22:00,
2013-09-02 15:27:00,90.1,77.7,29.86,West,260,0.0,4.0,67,0.00,,,0.00,255.0,meteohub,2013-09-02 19:27:00,
2013-09-02 15:32:00,90.0,77.5,29.86,WNW,300,0.0,6.0,67,0.00,,,0.00,840.0,meteohub,2013-09-02 19:32:00,
2013-09-02 15:37:00,90.1,77.7,29.85,WNW,300,0.0,6.0,67,0.00,,,0.00,791.0,meteohub,2013-09-02 19:37:00,
2013-09-02 15:42:00,90.7,78.3,29.85,NW,307,0.0,6.0,67,0.00,,,0.00,800.0,meteohub,2013-09-02 19:42:00,
2013-09-02 15:47:00,91.0,77.5,29.84,WNW,284,0.0,4.0,65,0.00,,,0.00,728.0,meteohub,2013-09-02 19:47:00,
2013-09-02 15:52:00,91.4,77.5,29.84,South,175,0.0,4.0,64,0.00,,,0.00,765.0,meteohub,2013-09-02 19:52:00,
2013-09-02 15:57:00,91.6,77.2,29.84,NW,307,4.0,5.0,63,0.00,,,0.00,737.0,meteohub,2013-09-02 19:57:00,
2013-09-02 16:02:00,91.2,76.8,29.84,WNW,287,0.0,7.0,63,0.00,,,0.00,729.0,meteohub,2013-09-02 20:02:00,
2013-09-02 16:07:00,91.4,77.0,29.84,West,272,0.0,7.0,63,0.00,,,0.00,178.0,meteohub,2013-09-02 20:07:00,
2013-09-02 16:12:00,91.4,77.5,29.84,SSE,164,0.0,8.0,64,0.00,,,0.00,606.0,meteohub,2013-09-02 20:12:00,
2013-09-02 16:17:00,91.6,77.2,29.83,SSW,209,0.0,8.0,63,0.00,,,0.00,710.0,meteohub,2013-09-02 20:17:00,
2013-09-02 16:22:00,91.9,78.4,29.83,South,181,0.0,3.0,65,0.00,,,0.00,694.0,meteohub,2013-09-02 20:22:00,
2013-09-02 16:27:00,92.1,77.7,29.83,SW,228,0.0,4.0,63,0.00,,,0.00,640.0,meteohub,2013-09-02 20:27:00,
2013-09-02 16:32:00,91.9,77.5,29.83,SW,228,0.0,4.0,63,0.00,,,0.00,571.0,meteohub,2013-09-02 20:32:00,
2013-09-02 16:37:00,91.9,77.5,29.83,West,264,0.0,4.0,63,0.00,,,0.00,619.0,meteohub,2013-09-02 20:37:00,
2013-09-02 16:42:00,91.9,77.5,29.83,SW,217,0.0,2.0,63,0.00,,,0.00,171.0,meteohub,2013-09-02 20:42:00,
2013-09-02 16:47:00,91.6,78.1,29.82,SW,230,0.0,4.0,65,0.00,,,0.00,141.0,meteohub,2013-09-02 20:47:00,
2013-09-02 16:52:00,91.0,77.2,29.82,SW,232,0.0,4.0,64,0.00,,,0.00,559.0,meteohub,2013-09-02 20:52:00,
2013-09-02 16:56:00,91.2,76.8,29.82,SE,145,0.0,4.0,63,0.00,,,0.00,529.0,meteohub,2013-09-02 20:56:00,
2013-09-02 17:02:00,91.8,77.4,29.83,SSE,155,0.0,1.0,63,0.00,,,0.00,538.0,meteohub,2013-09-02 21:02:00,
2013-09-02 17:07:00,91.8,77.9,29.83,SSE,159,0.0,7.0,64,0.00,,,0.00,362.0,meteohub,2013-09-02 21:07:00,
2013-09-02 17:12:00,91.9,77.5,29.83,SSE,161,0.0,7.0,63,0.00,,,0.00,341.0,meteohub,2013-09-02 21:12:00,
2013-09-02 17:17:00,92.1,78.3,29.83,SE,131,0.0,7.0,64,0.00,,,0.00,439.0,meteohub,2013-09-02 21:17:00,
2013-09-02 17:22:00,92.3,77.9,29.83,SW,220,0.0,1.0,63,0.00,,,0.00,397.0,meteohub,2013-09-02 21:22:00,
2013-09-02 17:27:00,91.9,77.0,29.83,West,280,2.0,2.0,62,0.00,,,0.00,248.0,meteohub,2013-09-02 21:27:00,
2013-09-02 17:32:00,91.6,76.6,29.83,West,280,0.0,3.0,62,0.00,,,0.00,153.0,meteohub,2013-09-02 21:32:00,
2013-09-02 17:37:00,91.6,77.7,29.84,SE,146,0.0,3.0,64,0.00,,,0.00,200.0,meteohub,2013-09-02 21:37:00,
2013-09-02 17:42:00,91.2,77.4,29.84,WNW,288,0.0,3.0,64,0.00,,,0.00,190.0,meteohub,2013-09-02 21:42:00,
2013-09-02 17:47:00,90.7,79.2,29.84,SSE,161,2.0,2.0,69,0.00,,,0.00,392.0,meteohub,2013-09-02 21:47:00,
2013-09-02 17:52:00,89.2,79.5,29.84,ESE,106,0.0,6.0,73,0.00,,,0.00,188.0,meteohub,2013-09-02 21:52:00,
2013-09-02 17:57:00,88.2,78.8,29.84,ESE,113,3.0,9.0,74,0.00,,,0.00,199.0,meteohub,2013-09-02 21:57:00,
2013-09-02 18:02:00,87.4,79.0,29.84,ENE,76,0.0,11.0,76,0.00,,,0.00,190.0,meteohub,2013-09-02 22:02:00,
2013-09-02 18:07:00,87.3,79.2,29.85,SE,124,1.0,11.0,77,0.00,,,0.00,158.0,meteohub,2013-09-02 22:07:00,
2013-09-02 18:12:00,86.9,78.8,29.85,SE,125,1.0,9.0,77,0.00,,,0.00,174.0,meteohub,2013-09-02 22:12:00,
2013-09-02 18:17:00,86.5,78.4,29.85,South,180,2.0,11.0,77,0.00,,,0.00,144.0,meteohub,2013-09-02 22:17:00,
2013-09-02 18:22:00,86.4,78.6,29.85,SE,144,4.0,11.0,78,0.00,,,0.00,142.0,meteohub,2013-09-02 22:22:00,
2013-09-02 18:27:00,86.2,78.4,29.85,ESE,123,5.0,7.0,78,0.00,,,0.00,116.0,meteohub,2013-09-02 22:27:00,
2013-09-02 18:32:00,85.6,77.9,29.85,South,186,1.0,10.0,78,0.00,,,0.00,146.0,meteohub,2013-09-02 22:32:00,
2013-09-02 18:37:00,84.9,76.8,29.85,SSW,207,3.0,10.0,77,0.00,,,0.00,199.0,meteohub,2013-09-02 22:37:00,
2013-09-02 18:42:00,84.4,76.5,29.85,West,280,5.0,12.0,77,0.00,,,0.00,125.0,meteohub,2013-09-02 22:42:00,
2013-09-02 18:47:00,83.3,75.7,29.86,SSE,165,5.0,12.0,78,0.00,,,0.00,111.0,meteohub,2013-09-02 22:47:00,
2013-09-02 18:52:00,81.9,74.7,29.85,SSW,200,0.0,10.0,79,0.00,,,0.00,104.0,meteohub,2013-09-02 22:52:00,
2013-09-02 18:57:00,81.1,74.3,29.84,South,184,2.0,10.0,80,0.00,,,0.00,93.0,meteohub,2013-09-02 22:57:00,
2013-09-02 19:02:00,81.0,74.1,29.84,SSE,149,0.0,10.0,80,0.00,,,0.00,81.0,meteohub,2013-09-02 23:02:00,
2013-09-02 19:07:00,81.0,74.1,29.84,SSE,155,1.0,8.0,80,0.00,,,0.00,69.0,meteohub,2013-09-02 23:07:00,
2013-09-02 19:12:00,81.0,73.4,29.84,SE,125,0.0,3.0,78,0.00,,,0.00,62.0,meteohub,2013-09-02 23:12:00,
2013-09-02 19:17:00,81.1,73.2,29.84,SSE,153,0.0,3.0,77,0.00,,,0.00,62.0,meteohub,2013-09-02 23:17:00,
2013-09-02 19:22:00,81.1,73.2,29.84,SSE,151,0.0,5.0,77,0.00,,,0.00,47.0,meteohub,2013-09-02 23:22:00,
2013-09-02 19:27:00,81.1,73.2,29.84,East,93,0.0,5.0,77,0.00,,,0.00,28.0,meteohub,2013-09-02 23:27:00,
2013-09-02 19:32:00,80.8,73.2,29.85,East,100,0.0,2.0,78,0.00,,,0.00,19.0,meteohub,2013-09-02 23:32:00,
2013-09-02 19:37:00,80.2,73.0,29.85,ESE,103,0.0,3.0,79,0.00,,,0.00,12.0,meteohub,2013-09-02 23:37:00,
2013-09-02 19:42:00,80.1,73.0,29.85,ESE,117,0.0,3.0,79,0.00,,,0.00,5.0,meteohub,2013-09-02 23:42:00,
2013-09-02 19:47:00,79.7,72.7,29.85,SSE,163,0.0,2.0,79,0.00,,,0.00,0.0,meteohub,2013-09-02 23:47:00,
2013-09-02 19:52:00,79.5,72.5,29.85,SSE,163,0.0,1.0,79,0.00,,,0.00,0.0,meteohub,2013-09-02 23:52:00,
2013-09-02 19:57:00,79.3,72.7,29.86,SSE,163,0.0,1.0,80,0.00,,,0.00,0.0,meteohub,2013-09-02 23:57:00,
2013-09-02 20:02:00,79.3,72.7,29.86,SSE,163,0.0,1.0,80,0.00,,,0.00,0.0,meteohub,2013-09-03 00:02:00,
2013-09-02 20:07:00,79.2,72.5,29.86,SSE,163,0.0,0.0,80,0.00,,,0.00,0.0,meteohub,2013-09-03 00:07:00,
2013-09-02 20:12:00,79.2,72.9,29.86,SSE,163,0.0,0.0,81,0.00,,,0.00,0.0,meteohub,2013-09-03 00:12:00,
2013-09-02 20:17:00,79.2,72.9,29.86,SSE,163,0.0,1.0,81,0.00,,,0.00,0.0,meteohub,2013-09-03 00:17:00,
2013-09-02 20:22:00,79.2,72.9,29.86,WSW,242,0.0,1.0,81,0.00,,,0.00,0.0,meteohub,2013-09-03 00:22:00,
2013-09-02 20:27:00,79.2,72.9,29.86,SSE,161,0.0,3.0,81,0.00,,,0.00,0.0,meteohub,2013-09-03 00:27:00,
2013-09-02 20:32:00,79.2,72.9,29.86,ESE,119,0.0,5.0,81,0.00,,,0.00,0.0,meteohub,2013-09-03 00:32:00,
2013-09-02 20:37:00,79.0,73.0,29.87,SSE,153,0.0,5.0,82,0.00,,,0.00,0.0,meteohub,2013-09-03 00:37:00,
2013-09-02 20:42:00,79.0,73.0,29.88,SSE,154,0.0,5.0,82,0.00,,,0.00,0.0,meteohub,2013-09-03 00:42:00,
2013-09-02 20:47:00,79.0,73.4,29.88,South,178,0.0,7.0,83,0.00,,,0.00,0.0,meteohub,2013-09-03 00:47:00,
2013-09-02 20:52:00,78.8,73.2,29.88,SSE,160,0.0,7.0,83,0.00,,,0.00,0.0,meteohub,2013-09-03 00:52:00,
2013-09-02 20:57:00,78.6,73.4,29.89,SSE,157,0.0,7.0,84,0.00,,,0.00,0.0,meteohub,2013-09-03 00:57:00,
2013-09-02 21:02:00,78.6,73.8,29.88,SSE,161,0.0,7.0,85,0.00,,,0.00,0.0,meteohub,2013-09-03 01:02:00,
2013-09-02 21:07:00,78.6,74.1,29.89,SSE,163,0.0,7.0,86,0.00,,,0.00,0.0,meteohub,2013-09-03 01:07:00,
2013-09-02 21:12:00,78.6,74.1,29.89,SSE,159,0.0,7.0,86,0.00,,,0.00,0.0,meteohub,2013-09-03 01:12:00,
2013-09-02 21:17:00,78.6,74.5,29.89,SSE,159,0.0,5.0,87,0.00,,,0.00,0.0,meteohub,2013-09-03 01:17:00,
2013-09-02 21:22:00,78.4,74.3,29.89,SSE,163,0.0,5.0,87,0.00,,,0.00,0.0,meteohub,2013-09-03 01:22:00,
2013-09-02 21:27:00,78.4,74.3,29.90,SSE,163,0.0,2.0,87,0.00,,,0.00,0.0,meteohub,2013-09-03 01:27:00,
2013-09-02 21:32:00,78.3,74.1,29.90,SSE,163,0.0,1.0,87,0.00,,,0.00,0.0,meteohub,2013-09-03 01:32:00,
2013-09-02 21:37:00,78.3,74.1,29.90,SSE,163,0.0,1.0,87,0.00,,,0.00,0.0,meteohub,2013-09-03 01:37:00,
2013-09-02 21:42:00,78.3,74.5,29.90,SSE,163,0.0,0.0,88,0.00,,,0.00,0.0,meteohub,2013-09-03 01:42:00,
2013-09-02 21:47:00,78.3,74.5,29.90,SSE,163,0.0,0.0,88,0.00,,,0.00,0.0,meteohub,2013-09-03 01:47:00,
2013-09-02 21:52:00,78.3,74.5,29.90,SSE,163,0.0,1.0,88,0.00,,,0.00,0.0,meteohub,2013-09-03 01:52:00,
2013-09-02 21:57:00,78.3,74.5,29.90,SSE,163,0.0,1.0,88,0.00,,,0.00,0.0,meteohub,2013-09-03 01:57:00,
2013-09-02 22:01:00,78.3,74.5,29.91,SSE,160,0.0,1.0,88,0.00,,,0.00,0.0,meteohub,2013-09-03 02:01:00,
2013-09-02 22:06:00,78.3,74.5,29.92,SSE,160,0.0,0.0,88,0.00,,,0.00,0.0,meteohub,2013-09-03 02:06:00,
2013-09-02 22:12:00,78.3,74.5,29.91,SSE,160,0.0,1.0,88,0.00,,,0.00,0.0,meteohub,2013-09-03 02:12:00,
2013-09-02 22:17:00,78.1,74.3,29.91,SSE,160,0.0,1.0,88,0.00,,,0.00,0.0,meteohub,2013-09-03 02:17:00,
2013-09-02 22:22:00,78.1,74.5,29.92,SSE,160,0.0,1.0,89,0.00,,,0.00,0.0,meteohub,2013-09-03 02:22:00,
2013-09-02 22:27:00,78.1,74.5,29.91,SSE,160,0.0,1.0,89,0.00,,,0.00,0.0,meteohub,2013-09-03 02:27:00,
2013-09-02 22:32:00,77.7,74.3,29.91,SSE,151,0.0,1.0,89,0.00,,,0.00,0.0,meteohub,2013-09-03 02:32:00,
2013-09-02 22:37:00,77.5,74.3,29.92,SSE,151,0.0,1.0,90,0.00,,,0.00,0.0,meteohub,2013-09-03 02:37:00,
2013-09-02 22:42:00,77.5,74.3,29.91,NE,53,0.0,1.0,90,0.00,,,0.00,0.0,meteohub,2013-09-03 02:42:00,
2013-09-02 22:46:00,77.4,73.9,29.91,NE,53,0.0,2.0,89,0.00,,,0.00,0.0,meteohub,2013-09-03 02:46:00,
2013-09-02 22:52:00,77.4,74.1,29.91,NE,53,0.0,2.0,90,0.00,,,0.00,0.0,meteohub,2013-09-03 02:52:00,
2013-09-02 22:57:00,77.2,73.8,29.91,NE,53,0.0,2.0,89,0.00,,,0.00,0.0,meteohub,2013-09-03 02:57:00,
2013-09-02 23:02:00,77.2,73.8,29.90,NE,53,0.0,2.0,89,0.00,,,0.00,0.0,meteohub,2013-09-03 03:02:00,
2013-09-02 23:07:00,77.0,73.6,29.90,NE,53,0.0,2.0,89,0.00,,,0.00,0.0,meteohub,2013-09-03 03:07:00,
2013-09-02 23:12:00,76.8,73.4,29.90,NE,53,0.0,2.0,89,0.00,,,0.00,0.0,meteohub,2013-09-03 03:12:00,
2013-09-02 23:17:00,76.6,72.9,29.89,NE,53,0.0,1.0,88,0.00,,,0.00,0.0,meteohub,2013-09-03 03:17:00,
2013-09-02 23:22:00,76.6,72.9,29.89,NE,53,0.0,1.0,88,0.00,,,0.00,0.0,meteohub,2013-09-03 03:22:00,
2013-09-02 23:27:00,76.5,72.7,29.89,NE,53,0.0,0.0,88,0.00,,,0.00,0.0,meteohub,2013-09-03 03:27:00,
2013-09-02 23:32:00,76.3,72.9,29.89,NE,53,0.0,0.0,89,0.00,,,0.00,0.0,meteohub,2013-09-03 03:32:00,
2013-09-02 23:37:00,76.1,72.7,29.89,NE,53,0.0,0.0,89,0.00,,,0.00,0.0,meteohub,2013-09-03 03:37:00,
2013-09-02 23:42:00,75.9,72.9,29.89,NE,53,0.0,0.0,90,0.00,,,0.00,0.0,meteohub,2013-09-03 03:42:00,
2013-09-02 23:47:00,75.7,72.7,29.89,NE,53,0.0,0.0,90,0.00,,,0.00,0.0,meteohub,2013-09-03 03:47:00,
2013-09-02 23:52:00,75.7,72.9,29.88,NE,53,0.0,0.0,91,0.00,,,0.00,0.0,meteohub,2013-09-03 03:52:00,
2013-09-02 23:57:00,75.4,72.5,29.88,NE,53,0.0,0.0,91,0.00,,,0.00,0.0,meteohub,2013-09-03 03:57:00,